Estación de Campanacura

Ultimos registro cada 15 minutos 45
Estación Fecha / Hora Temperatura Humedad Lluvia Velocidad Dirección Radiación Presion
45 Campanacura 10-05-2026 11:00 14,6 56,1 0 1,5 164 478,1 1002
44 Campanacura 10-05-2026 10:45 14,3 57,8 0 2 161 449,4 1002,1
43 Campanacura 10-05-2026 10:30 13,7 58 0 2 168 421,9 1002,1
42 Campanacura 10-05-2026 10:15 13,5 59,4 0 2 168 388,1 1002,2
41 Campanacura 10-05-2026 10:00 12,8 63,1 0 2 164 354,4 1002,2
40 Campanacura 10-05-2026 09:45 12,2 64,1 0 1,5 168 316,9 1002,3
39 Campanacura 10-05-2026 09:30 11,4 63 0 0,5 184 279,4 1002,3
38 Campanacura 10-05-2026 09:15 10 57,3 0 0 208 240,6 1002,4
37 Campanacura 10-05-2026 09:00 9 53,7 0 0 209 200,6 1002,3
36 Campanacura 10-05-2026 08:45 7,9 43,3 0 0 220 159,4 1002,2
35 Campanacura 10-05-2026 08:30 7,2 34 0 0 240 120,6 1002,2
34 Campanacura 10-05-2026 08:15 4,8 26,4 0 0 240 71,9 1002,1
33 Campanacura 10-05-2026 08:00 2,6 29,9 0 0 240 33,1 1002
32 Campanacura 10-05-2026 07:45 1,9 29,2 0 0 240 8,1 1001,9
31 Campanacura 10-05-2026 07:30 2 29,1 0 0 241 1,9 1002
30 Campanacura 10-05-2026 07:15 1 30,6 0 0 246 0,6 1002
29 Campanacura 10-05-2026 07:00 0,7 32,1 0 0 246 0,6 1002
28 Campanacura 10-05-2026 06:45 0,7 32,4 0 0 246 0,6 1001,9
27 Campanacura 10-05-2026 06:30 0,2 33,2 0 0 246 0,6 1001,7
26 Campanacura 10-05-2026 06:15 0,2 34,2 0 0 246 0,6 1001,9
25 Campanacura 10-05-2026 06:00 0,1 37,8 0 0 244 0,6 1002
24 Campanacura 10-05-2026 05:45 2,8 32,8 0 0 244 0,6 1001,9
23 Campanacura 10-05-2026 05:30 3,5 32,6 0 0 246 0,6 1001,8
22 Campanacura 10-05-2026 05:15 1,4 31,9 0 0 246 0,6 1001,6
21 Campanacura 10-05-2026 05:00 2,4 29,7 0 0 247 0,6 1001,6
20 Campanacura 10-05-2026 04:45 2,1 29,8 0 0 248 0,6 1001,6
19 Campanacura 10-05-2026 04:30 1,6 31,7 0 0 248 0,6 1001,7
18 Campanacura 10-05-2026 04:15 1,4 32,6 0 0 248 0,6 1001,6
17 Campanacura 10-05-2026 04:00 1,5 33,5 0 0 248 0,6 1001,7
16 Campanacura 10-05-2026 03:45 2 34 0 0 248 0,6 1001,7
15 Campanacura 10-05-2026 03:30 1,9 34 0 0 248 0,6 1001,7
14 Campanacura 10-05-2026 03:15 2,3 34,1 0 0 248 0,6 1001,9
13 Campanacura 10-05-2026 03:00 1,5 38,5 0 0 248 0,6 1001,8
12 Campanacura 10-05-2026 02:45 1,5 40,6 0 0 248 0,6 1002
11 Campanacura 10-05-2026 02:30 2,3 46,5 0 0 236 0,6 1002,1
10 Campanacura 10-05-2026 02:15 6,6 56,9 0 0 184 0,6 1002,2
9 Campanacura 10-05-2026 02:00 5,9 51 0 0 188 0,6 1002,3
8 Campanacura 10-05-2026 01:45 5,1 55 0 0 188 0,6 1002,5
7 Campanacura 10-05-2026 01:30 6,7 56,5 0 0 188 0,6 1002,5
6 Campanacura 10-05-2026 01:15 5 37,2 0 0 188 0,6 1002,7
5 Campanacura 10-05-2026 01:00 3,6 40,1 0 0 188 0,6 1002,9
4 Campanacura 10-05-2026 00:45 3,3 45,6 0 0 188 0,6 1003,2
3 Campanacura 10-05-2026 00:30 4 50,9 0 0 185 0,6 1003,1
2 Campanacura 10-05-2026 00:15 5,9 59,9 0 0 181 0,6 1003,3
1 Campanacura 10-05-2026 00:00 6,8 57,5 0 0 181 0,6 1003,4